Time;durP1;ratioP1;P1;durP2;ratioP2;P2;SDS_P1;SDS_P2;PMS_P1;PMS_P2;Temp;Humidity;BMP_temperature;BMP_pressure;BME280_temperature;BME280_humidity;BME280_pressure;Samples;Min_cycle;Max_cycle;Signal;HPM_P1;HPM_P2
2023/03/03 00:02:13;;;;;;;;;;;;;;;-0.57;100.00;95749.28;10401999;28;2328;-69
2023/03/03 00:07:21;;;;;;;;;;;;;;;-0.63;100.00;95756.19;10401378;28;2316;-70
2023/03/03 00:12:25;;;;;;;;;;;;;;;-0.68;100.00;95749.88;10404109;28;2243;-71
2023/03/03 00:17:27;;;;;;;;;;;;;;;-0.68;100.00;95747.25;10390917;28;2350;-67
2023/03/03 00:22:31;;;;;;;;;;;;;;;-0.67;100.00;95744.41;10399151;28;2049;-67
2023/03/03 00:27:34;;;;;;;;;;;;;;;-0.67;100.00;95744.41;10399781;28;2014;-68
2023/03/03 00:32:37;;;;;;;;;;;;;;;-0.67;100.00;95747.03;10400528;28;2358;-70
2023/03/03 00:37:40;;;;;;;;;;;;;;;-0.70;100.00;95747.47;10397296;28;2321;-69
2023/03/03 00:42:43;;;;;;;;;;;;;;;-0.69;100.00;95751.72;10396675;28;2357;-68
2023/03/03 00:47:46;;;;;;;;;;;;;;;-0.71;100.00;95755.56;10402456;28;2313;-69
2023/03/03 00:52:49;;;;;;;;;;;;;;;-0.72;100.00;95757.38;10400647;28;2345;-69
2023/03/03 00:57:52;;;;;;;;;;;;;;;-0.75;100.00;95763.09;10395563;28;2290;-67
2023/03/03 01:02:55;;;;;;;;;;;;;;;-0.75;100.00;95751.72;10397594;28;2383;-68
2023/03/03 01:07:58;;;;;;;;;;;;;;;-0.78;100.00;95758.19;10404621;28;2277;-68
2023/03/03 01:13:00;;;;;;;;;;;;;;;-0.71;100.00;95756.38;10392412;28;2106;-68
2023/03/03 01:18:02;;;;;;;;;;;;;;;-0.71;100.00;95748.44;10392360;28;2408;-67
2023/03/03 01:23:05;;;;;;;;;;;;;;;-0.67;100.00;95744.41;10394245;28;2122;-68
2023/03/03 01:28:07;;;;;;;;;;;;;;;-0.67;100.00;95744.41;10396702;28;2307;-69
2023/03/03 01:33:10;;;;;;;;;;;;;;;-0.68;100.00;95748.06;10389231;28;2417;-66
2023/03/03 01:38:13;;;;;;;;;;;;;;;-0.74;100.00;95743.59;10394404;28;2361;-68
2023/03/03 01:43:15;;;;;;;;;;;;;;;-0.72;100.00;95736.28;10407196;28;2299;-67
2023/03/03 01:48:18;;;;;;;;;;;;;;;-0.70;100.00;95736.91;10394826;28;2367;-68
2023/03/03 01:53:21;;;;;;;;;;;;;;;-0.71;100.00;95732.59;10404159;28;2435;-68
2023/03/03 01:58:24;;;;;;;;;;;;;;;-0.70;100.00;95730.78;10392992;28;2365;-67
2023/03/03 02:03:27;;;;;;;;;;;;;;;-0.69;100.00;95727.16;10400187;28;2285;-69
2023/03/03 02:08:29;;;;;;;;;;;;;;;-0.74;100.00;95719.03;10395034;28;2377;-72
2023/03/03 02:13:31;;;;;;;;;;;;;;;-0.75;100.00;95726.13;10394282;28;2141;-68
2023/03/03 02:18:34;;;;;;;;;;;;;;;-0.64;100.00;95733.41;10396962;28;2382;-68
2023/03/03 02:23:36;;;;;;;;;;;;;;;-0.57;100.00;95733.44;10399973;28;2215;-67
2023/03/03 02:28:39;;;;;;;;;;;;;;;-0.53;100.00;95724.06;10394127;28;2328;-69
2023/03/03 02:33:41;;;;;;;;;;;;;;;-0.55;100.00;95737.47;10400352;28;2277;-68
2023/03/03 02:38:43;;;;;;;;;;;;;;;-0.57;100.00;95733.44;10395891;28;2045;-67
2023/03/03 02:43:46;;;;;;;;;;;;;;;-0.48;100.00;95731.38;10389589;28;2067;-68
2023/03/03 02:48:48;;;;;;;;;;;;;;;-0.31;100.00;95724.66;10399994;28;2297;-69
2023/03/03 02:53:51;;;;;;;;;;;;;;;-0.16;100.00;95719.94;10393075;28;2281;-68
2023/03/03 02:58:53;;;;;;;;;;;;;;;0.04;100.00;95724.34;10401260;28;2382;-67
2023/03/03 03:03:56;;;;;;;;;;;;;;;0.21;100.00;95714.94;10394209;28;2324;-68
2023/03/03 03:08:59;;;;;;;;;;;;;;;0.42;100.00;95713.81;10392233;28;2336;-69
2023/03/03 03:14:02;;;;;;;;;;;;;;;0.53;100.00;95713.94;10396903;28;2403;-68
2023/03/03 03:19:15;;;;;;;;;;;;;;;0.64;100.00;95712.47;10399104;28;2332;-67
2023/03/03 03:24:18;;;;;;;;;;;;;;;0.68;100.00;95716.28;10402338;28;2326;-68
2023/03/03 03:29:21;;;;;;;;;;;;;;;0.81;100.00;95712.75;10406548;28;2054;-69
2023/03/03 03:34:24;;;;;;;;;;;;;;;0.90;100.00;95719.44;10395780;28;2351;-67
2023/03/03 03:39:27;;;;;;;;;;;;;;;0.88;100.00;95718.81;10409562;28;2154;-69
2023/03/03 03:44:31;;;;;;;;;;;;;;;1.01;100.00;95716.06;10395513;28;2340;-77
2023/03/03 03:49:33;;;;;;;;;;;;;;;1.05;100.00;95722.56;10409538;28;2364;-78
2023/03/03 03:54:35;;;;;;;;;;;;;;;1.03;100.00;95707.94;10398396;28;2359;-69
2023/03/03 03:59:38;;;;;;;;;;;;;;;1.03;100.00;95714.03;10401855;28;2725;-67
2023/03/03 04:04:41;;;;;;;;;;;;;;;1.08;100.00;95714.22;10406250;28;2275;-68
2023/03/03 04:09:43;;;;;;;;;;;;;;;1.09;100.00;95715.03;10406338;28;2337;-68
2023/03/03 04:14:46;;;;;;;;;;;;;;;1.11;100.00;95720.91;10400462;28;2295;-69
2023/03/03 04:19:49;;;;;;;;;;;;;;;1.17;100.00;95721.88;10437976;28;2350;-68
2023/03/03 04:24:51;;;;;;;;;;;;;;;1.11;100.00;95723.53;10399299;28;2316;-68
2023/03/03 04:29:53;;;;;;;;;;;;;;;1.08;100.00;95721.31;10401944;28;2377;-69
2023/03/03 04:34:57;;;;;;;;;;;;;;;1.05;100.00;95719.91;10397601;28;2287;-68
2023/03/03 04:40:09;;;;;;;;;;;;;;;1.05;100.00;95721.75;10407974;28;2322;-67
2023/03/03 04:45:21;;;;;;;;;;;;;;;1.13;100.00;95718.84;10399864;28;2014;-68
2023/03/03 04:50:25;;;;;;;;;;;;;;;1.07;100.00;95728.44;10406649;28;2318;-67
2023/03/03 04:55:27;;;;;;;;;;;;;;;1.03;100.00;95718.53;10396032;28;2292;-68
2023/03/03 05:00:30;;;;;;;;;;;;;;;1.14;100.00;95724.94;10404275;28;2299;-67
2023/03/03 05:05:33;;;;;;;;;;;;;;;1.18;100.00;95718.19;10398239;28;2075;-68
2023/03/03 05:10:36;;;;;;;;;;;;;;;1.13;100.00;95718.03;10389347;28;2069;-68
2023/03/03 05:15:39;;;;;;;;;;;;;;;1.25;100.00;95726.91;10403139;28;2277;-67
2023/03/03 05:20:44;;;;;;;;;;;;;;;1.28;100.00;95721.19;10395194;28;2349;-69
2023/03/03 05:25:47;;;;;;;;;;;;;;;1.31;100.00;95718.09;10400392;28;2350;-68
2023/03/03 05:30:49;;;;;;;;;;;;;;;1.29;100.00;95712.22;10398032;28;2330;-68
2023/03/03 05:35:52;;;;;;;;;;;;;;;1.30;100.00;95727.06;10401210;28;2458;-68
2023/03/03 05:40:55;;;;;;;;;;;;;;;1.30;100.00;95730.53;10397332;28;2064;-68
2023/03/03 05:45:57;;;;;;;;;;;;;;;1.24;100.00;95743.81;10402035;28;2308;-68
2023/03/03 05:51:01;;;;;;;;;;;;;;;1.29;100.00;95743.97;10395134;28;2329;-67
2023/03/03 05:56:03;;;;;;;;;;;;;;;1.30;100.00;95748.25;10400574;28;2358;-69
2023/03/03 06:01:06;;;;;;;;;;;;;;;1.30;100.00;95746.41;10392859;28;1997;-68
2023/03/03 06:06:09;;;;;;;;;;;;;;;1.38;100.00;95755.91;10396299;28;2275;-68
2023/03/03 06:11:11;;;;;;;;;;;;;;;1.39;100.00;95760.19;10396272;28;2072;-68
2023/03/03 06:16:15;;;;;;;;;;;;;;;1.26;100.00;95766.41;10411103;28;2454;-66
2023/03/03 06:21:17;;;;;;;;;;;;;;;1.39;100.00;95773.44;10409619;28;2374;-69
2023/03/03 06:26:19;;;;;;;;;;;;;;;1.35;100.00;95777.56;10406434;28;2449;-69
2023/03/03 06:31:22;;;;;;;;;;;;;;;1.31;100.00;95782.44;10402680;28;2354;-68
2023/03/03 06:36:26;;;;;;;;;;;;;;;1.34;100.00;95778.59;10400225;28;2372;-68
2023/03/03 06:41:28;;;;;;;;;;;;;;;1.40;100.00;95782.19;10398103;28;2140;-71
2023/03/03 06:46:30;;;;;;;;;;;;;;;1.52;100.00;95786.56;10394276;28;2363;-69
2023/03/03 06:51:33;;;;;;;;;;;;;;;1.56;100.00;95789.59;10397534;28;2269;-71
2023/03/03 06:56:36;;;;;;;;;;;;;;;1.61;100.00;95790.56;10392057;28;2367;-71
2023/03/03 07:01:39;;;;;;;;;;;;;;;1.69;100.00;95784.19;10399241;28;2123;-70
2023/03/03 07:06:41;;;;;;;;;;;;;;;1.67;100.00;95785.44;10391092;28;2441;-69
2023/03/03 07:11:45;;;;;;;;;;;;;;;1.77;100.00;95783.09;10409240;28;2303;-71
2023/03/03 07:16:48;;;;;;;;;;;;;;;1.85;100.00;95796.09;10398347;28;2208;-72
2023/03/03 07:21:50;;;;;;;;;;;;;;;1.94;100.00;95805.38;10401069;28;2053;-74
2023/03/03 07:26:53;;;;;;;;;;;;;;;1.97;100.00;95804.91;10393233;28;2354;-71
2023/03/03 07:31:56;;;;;;;;;;;;;;;1.97;100.00;95810.22;10387378;28;2357;-70
2023/03/03 07:36:59;;;;;;;;;;;;;;;1.98;100.00;95822.47;10396769;28;2294;-70
2023/03/03 07:42:12;;;;;;;;;;;;;;;2.05;100.00;95822.41;10429223;28;2303;-70
2023/03/03 07:47:14;;;;;;;;;;;;;;;2.12;100.00;95833.75;10390859;28;2216;-71
2023/03/03 07:52:27;;;;;;;;;;;;;;;2.28;100.00;95829.72;10385685;28;2704;-75
2023/03/03 07:57:30;;;;;;;;;;;;;;;2.53;100.00;95830.44;10388302;28;2277;-72
2023/03/03 08:02:33;;;;;;;;;;;;;;;2.82;100.00;95828.91;10401699;28;2373;-70
2023/03/03 08:07:35;;;;;;;;;;;;;;;3.14;100.00;95821.53;10403830;28;2341;-70
2023/03/03 08:12:38;;;;;;;;;;;;;;;3.37;100.00;95828.78;10404258;28;2212;-71
2023/03/03 08:17:41;;;;;;;;;;;;;;;3.53;100.00;95822.78;10401791;28;2327;-70
2023/03/03 08:22:43;;;;;;;;;;;;;;;3.80;100.00;95817.88;10405318;28;2057;-70
2023/03/03 08:27:46;;;;;;;;;;;;;;;4.02;100.00;95818.13;10407517;28;2413;-74
2023/03/03 08:32:48;;;;;;;;;;;;;;;4.14;100.00;95826.13;10410783;28;2275;-69
2023/03/03 08:37:52;;;;;;;;;;;;;;;4.39;100.00;95825.03;10401711;28;2328;-70
2023/03/03 08:42:54;;;;;;;;;;;;;;;4.28;100.00;95826.69;10404583;28;2302;-71
2023/03/03 08:48:00;;;;;;;;;;;;;;;4.41;100.00;95836.28;10409943;28;2333;-71
2023/03/03 08:53:07;;;;;;;;;;;;;;;4.49;100.00;95828.72;10408766;28;2342;-70
2023/03/03 08:58:09;;;;;;;;;;;;;;;4.82;100.00;95833.41;10399982;28;2034;-71
2023/03/03 09:03:12;;;;;;;;;;;;;;;4.82;100.00;95846.72;10400232;28;2283;-69
2023/03/03 09:08:14;;;;;;;;;;;;;;;4.85;100.00;95838.28;10397791;28;2054;-70
2023/03/03 09:13:17;;;;;;;;;;;;;;;4.88;100.00;95844.97;10403347;28;2355;-70
2023/03/03 09:18:21;;;;;;;;;;;;;;;5.38;100.00;95841.66;10406523;28;2227;-72
2023/03/03 09:23:24;;;;;;;;;;;;;;;5.30;100.00;95847.41;10408783;28;2326;-72
2023/03/03 09:28:26;;;;;;;;;;;;;;;5.34;100.00;95849.34;10396385;28;2327;-71
2023/03/03 09:33:29;;;;;;;;;;;;;;;5.35;100.00;95853.63;10405675;28;2364;-72
2023/03/03 09:38:32;;;;;;;;;;;;;;;5.46;100.00;95854.59;10397515;28;2375;-72
2023/03/03 09:43:42;;;;;;;;;;;;;;;5.55;100.00;95857.72;10403364;28;2055;-73
2023/03/03 09:48:45;;;;;;;;;;;;;;;5.94;100.00;95858.69;10397227;28;2363;-72
2023/03/03 09:53:49;;;;;;;;;;;;;;;6.37;100.00;95863.34;10399965;28;2365;-73
2023/03/03 09:58:51;;;;;;;;;;;;;;;6.48;100.00;95867.78;10402787;28;2445;-71
2023/03/03 10:03:54;;;;;;;;;;;;;;;6.09;100.00;95861.56;10399505;28;2569;-70
2023/03/03 10:08:56;;;;;;;;;;;;;;;6.43;100.00;95873.06;10408169;28;2355;-72
2023/03/03 10:13:59;;;;;;;;;;;;;;;6.84;100.00;95875.47;10404474;28;2622;-72
2023/03/03 10:19:02;;;;;;;;;;;;;;;6.00;100.00;95879.06;10403611;28;2595;-71
2023/03/03 10:24:04;;;;;;;;;;;;;;;5.91;100.00;95881.28;10401752;28;2544;-72
2023/03/03 10:29:07;;;;;;;;;;;;;;;5.70;100.00;95882.78;10400250;28;2326;-72
2023/03/03 10:34:12;;;;;;;;;;;;;;;5.97;100.00;95884.88;10401806;28;2628;-70
2023/03/03 10:39:15;;;;;;;;;;;;;;;6.65;100.00;95888.31;10415716;28;2620;-71
2023/03/03 10:44:17;;;;;;;;;;;;;;;7.20;100.00;95871.41;10412415;28;2267;-72
2023/03/03 10:49:20;;;;;;;;;;;;;;;7.69;100.00;95868.69;10445332;28;2345;-71
2023/03/03 10:54:22;;;;;;;;;;;;;;;7.34;100.00;95869.94;10392325;28;2613;-73
2023/03/03 10:59:25;;;;;;;;;;;;;;;7.37;100.00;95874.78;10399131;28;2523;-73
2023/03/03 11:04:28;;;;;;;;;;;;;;;6.73;100.00;95886.03;10398715;28;2613;-71
2023/03/03 11:09:33;;;;;;;;;;;;;;;7.02;100.00;95889.34;10400351;28;2631;-71
2023/03/03 11:14:36;;;;;;;;;;;;;;;7.15;100.00;95887.38;10401085;28;2504;-71
2023/03/03 11:19:38;;;;;;;;;;;;;;;6.92;100.00;95889.22;10388740;28;2656;-70
2023/03/03 11:24:51;;;;;;;;;;;;;;;7.03;100.00;95890.97;10389615;28;2654;-71
2023/03/03 11:29:53;;;;;;;;;;;;;;;6.54;100.00;95891.88;10389216;28;2582;-72
2023/03/03 11:34:56;;;;;;;;;;;;;;;6.89;100.00;95889.72;10400286;28;2811;-72
2023/03/03 11:39:58;;;;;;;;;;;;;;;7.40;100.00;95882.31;10399985;28;2535;-73
2023/03/03 11:45:02;;;;;;;;;;;;;;;7.64;100.00;95868.66;10398721;28;2660;-70
2023/03/03 11:50:04;;;;;;;;;;;;;;;7.85;100.00;95865.13;10400754;28;2648;-72
2023/03/03 11:55:07;;;;;;;;;;;;;;;8.13;100.00;95858.66;10404116;28;2604;-72
2023/03/03 12:00:09;;;;;;;;;;;;;;;8.40;100.00;95855.97;10401546;28;2615;-72
2023/03/03 12:05:11;;;;;;;;;;;;;;;8.88;100.00;95854.91;10400169;28;2565;-71
2023/03/03 12:10:16;;;;;;;;;;;;;;;8.12;100.00;95844.47;10405318;28;2587;-73
2023/03/03 12:15:19;;;;;;;;;;;;;;;6.84;100.00;95849.56;10402483;28;2572;-75
2023/03/03 12:20:22;;;;;;;;;;;;;;;6.40;100.00;95843.34;10412934;28;2544;-74
2023/03/03 12:25:25;;;;;;;;;;;;;;;6.34;100.00;95849.69;10408064;28;2658;-70
2023/03/03 12:30:28;;;;;;;;;;;;;;;6.36;100.00;95847.56;10396340;28;2609;-70
2023/03/03 12:35:30;;;;;;;;;;;;;;;6.47;100.00;95846.66;10403726;28;2332;-71
2023/03/03 12:40:32;;;;;;;;;;;;;;;6.41;100.00;95843.09;10403476;28;2618;-72
2023/03/03 12:45:35;;;;;;;;;;;;;;;5.93;100.00;95852.53;10408411;28;2555;-69
2023/03/03 12:50:37;;;;;;;;;;;;;;;5.58;100.00;95835.88;10406388;28;2289;-70
2023/03/03 12:55:40;;;;;;;;;;;;;;;5.87;100.00;95839.31;10402088;28;2814;-71
2023/03/03 13:00:43;;;;;;;;;;;;;;;5.94;100.00;95840.81;10398355;28;2586;-72
2023/03/03 13:05:46;;;;;;;;;;;;;;;6.24;100.00;95847.69;10403478;28;2417;-71
2023/03/03 13:10:50;;;;;;;;;;;;;;;6.29;100.00;95836.25;10400313;28;2559;-70
2023/03/03 13:15:53;;;;;;;;;;;;;;;6.59;100.00;95834.00;10402511;28;2577;-72
2023/03/03 13:20:57;;;;;;;;;;;;;;;6.94;100.00;95832.88;10395722;28;2552;-72
2023/03/03 13:26:00;;;;;;;;;;;;;;;6.84;100.00;95824.72;10398233;28;2597;-70
2023/03/03 13:31:03;;;;;;;;;;;;;;;6.39;100.00;95818.53;10399929;28;2731;-69
2023/03/03 13:36:05;;;;;;;;;;;;;;;6.15;100.00;95825.09;10401299;28;2573;-70
2023/03/03 13:41:07;;;;;;;;;;;;;;;5.98;100.00;95827.81;10401430;28;2373;-70
2023/03/03 13:46:10;;;;;;;;;;;;;;;5.95;100.00;95821.06;10398228;28;2683;-71
2023/03/03 13:51:12;;;;;;;;;;;;;;;6.23;100.00;95816.69;10394803;28;2619;-72
2023/03/03 13:56:16;;;;;;;;;;;;;;;6.30;100.00;95814.66;10395538;28;2540;-71
2023/03/03 14:01:19;;;;;;;;;;;;;;;6.16;100.00;95810.69;10396741;28;2631;-72
2023/03/03 14:06:21;;;;;;;;;;;;;;;6.35;100.00;95798.69;10399769;28;2552;-71
2023/03/03 14:11:24;;;;;;;;;;;;;;;6.45;100.00;95796.19;10398101;28;2306;-71
2023/03/03 14:16:34;;;;;;;;;;;;;;;6.50;100.00;95785.56;10408453;28;2611;-72
2023/03/03 14:21:38;;;;;;;;;;;;;;;6.39;100.00;95788.34;10396316;28;2649;-72
2023/03/03 14:26:40;;;;;;;;;;;;;;;6.22;100.00;95781.16;10407900;28;2580;-71
2023/03/03 14:31:42;;;;;;;;;;;;;;;6.25;100.00;95777.22;10397398;28;2655;-72
2023/03/03 14:36:45;;;;;;;;;;;;;;;6.29;100.00;95783.66;10394656;28;2606;-72
2023/03/03 14:41:49;;;;;;;;;;;;;;;6.30;100.00;95779.13;10393153;28;2617;-71
2023/03/03 14:46:56;;;;;;;;;;;;;;;6.21;100.00;95773.41;10399990;28;2643;-72
2023/03/03 14:51:58;;;;;;;;;;;;;;;6.26;100.00;95784.16;10393970;28;2589;-72
2023/03/03 14:57:00;;;;;;;;;;;;;;;6.36;100.00;95787.00;10397842;28;2542;-72
2023/03/03 15:02:03;;;;;;;;;;;;;;;6.37;100.00;95785.13;10393588;28;2348;-72
2023/03/03 15:07:05;;;;;;;;;;;;;;;6.28;100.00;95791.91;10424840;28;2536;-70
2023/03/03 15:12:08;;;;;;;;;;;;;;;6.36;100.00;95784.31;10398572;28;2599;-71
2023/03/03 15:17:10;;;;;;;;;;;;;;;6.34;100.00;95778.41;10390203;28;2652;-69
2023/03/03 15:22:16;;;;;;;;;;;;;;;6.43;100.00;95784.94;10388294;28;2671;-69
2023/03/03 15:27:19;;;;;;;;;;;;;;;6.42;100.00;95785.97;10394182;28;2637;-69
2023/03/03 15:32:21;;;;;;;;;;;;;;;6.60;100.00;95789.41;10405437;28;2987;-70
2023/03/03 15:37:24;;;;;;;;;;;;;;;6.59;100.00;95793.94;10400331;28;2703;-69
2023/03/03 15:42:27;;;;;;;;;;;;;;;6.61;100.00;95791.03;10399270;28;2657;-70
2023/03/03 15:47:30;;;;;;;;;;;;;;;6.80;100.00;95791.53;10403140;28;2532;-65
2023/03/03 15:52:33;;;;;;;;;;;;;;;6.90;100.00;95794.34;10420754;28;2841;-69
2023/03/03 15:57:36;;;;;;;;;;;;;;;7.03;100.00;95785.94;10399572;28;2631;-69
2023/03/03 16:02:39;;;;;;;;;;;;;;;7.12;100.00;95786.28;10388739;28;2562;-68
2023/03/03 16:07:41;;;;;;;;;;;;;;;7.09;100.00;95784.94;10391682;28;2585;-68
2023/03/03 16:12:45;;;;;;;;;;;;;;;7.21;100.00;95788.25;10393393;28;2625;-68
2023/03/03 16:17:47;;;;;;;;;;;;;;;7.21;100.00;95795.47;10386744;28;2540;-68
2023/03/03 16:22:49;;;;;;;;;;;;;;;7.03;100.00;95800.09;10393690;28;2573;-69
2023/03/03 16:27:52;;;;;;;;;;;;;;;7.03;100.00;95802.78;10397539;28;2539;-74
2023/03/03 16:32:54;;;;;;;;;;;;;;;6.78;100.00;95805.13;10396756;28;2670;-76
2023/03/03 16:37:57;;;;;;;;;;;;;;;6.68;100.00;95807.66;10392223;28;2355;-68
2023/03/03 16:43:08;;;;;;;;;;;;;;;6.52;100.00;95814.69;10402260;28;2735;-66
2023/03/03 16:48:10;;;;;;;;;;;;;;;6.35;100.00;95819.25;10398489;28;2707;-68
2023/03/03 16:53:14;;;;;;;;;;;;;;;6.13;100.00;95835.22;10397275;28;2599;-68
2023/03/03 16:58:17;;;;;;;;;;;;;;;5.95;100.00;95829.06;10396002;28;2370;-68
2023/03/03 17:03:20;;;;;;;;;;;;;;;5.86;100.00;95833.19;10394239;28;2642;-68
2023/03/03 17:08:23;;;;;;;;;;;;;;;5.71;100.00;95840.91;10391497;28;2705;-67
2023/03/03 17:13:25;;;;;;;;;;;;;;;5.66;100.00;95843.50;10395978;28;2606;-68
2023/03/03 17:18:29;;;;;;;;;;;;;;;5.51;100.00;95845.91;10403302;28;2556;-67
2023/03/03 17:23:33;;;;;;;;;;;;;;;5.41;100.00;95851.88;10395228;28;2562;-69
2023/03/03 17:28:36;;;;;;;;;;;;;;;5.27;100.00;95863.84;10394869;28;2634;-68
2023/03/03 17:33:38;;;;;;;;;;;;;;;5.15;100.00;95870.06;10400049;28;2601;-69
2023/03/03 17:38:42;;;;;;;;;;;;;;;5.00;100.00;95882.25;10428380;28;2329;-68
2023/03/03 17:43:45;;;;;;;;;;;;;;;4.87;100.00;95884.13;10399248;28;2672;-68
2023/03/03 17:48:48;;;;;;;;;;;;;;;4.79;100.00;95889.81;10396284;28;2692;-69
2023/03/03 17:53:50;;;;;;;;;;;;;;;4.61;100.00;95898.75;10384256;28;2584;-68
2023/03/03 17:58:54;;;;;;;;;;;;;;;4.53;100.00;95901.78;10395616;28;2561;-68
2023/03/03 18:03:57;;;;;;;;;;;;;;;4.33;100.00;95901.31;10389032;28;2669;-67
2023/03/03 18:09:00;;;;;;;;;;;;;;;4.16;100.00;95914.47;10399334;28;2641;-68
2023/03/03 18:14:15;;;;;;;;;;;;;;;3.97;100.00;95918.25;10402138;28;2579;-68
2023/03/03 18:19:18;;;;;;;;;;;;;;;3.87;100.00;95915.34;10400189;28;2650;-66
2023/03/03 18:24:20;;;;;;;;;;;;;;;3.71;100.00;95917.63;10392744;28;2991;-68
2023/03/03 18:29:23;;;;;;;;;;;;;;;3.64;100.00;95924.06;10402402;28;2626;-67
2023/03/03 18:34:25;;;;;;;;;;;;;;;3.64;100.00;95924.06;10392877;28;2326;-68
2023/03/03 18:39:28;;;;;;;;;;;;;;;3.56;100.00;95932.34;10397312;28;2550;-69
2023/03/03 18:44:30;;;;;;;;;;;;;;;3.43;100.00;95925.34;10396349;28;2338;-67
2023/03/03 18:49:43;;;;;;;;;;;;;;;3.37;100.00;95928.91;10399637;28;2830;-67
2023/03/03 18:54:45;;;;;;;;;;;;;;;3.23;100.00;95931.75;10396735;28;2620;-67
2023/03/03 18:59:48;;;;;;;;;;;;;;;3.14;100.00;95937.59;10390140;28;2619;-68
2023/03/03 19:04:52;;;;;;;;;;;;;;;3.04;100.00;95942.59;10389249;28;2334;-68
2023/03/03 19:09:57;;;;;;;;;;;;;;;2.95;100.00;95952.72;10394993;28;2614;-68
2023/03/03 19:15:03;;;;;;;;;;;;;;;2.93;100.00;95947.63;10398420;28;2627;-68
2023/03/03 19:20:06;;;;;;;;;;;;;;;2.86;100.00;95954.88;10390043;28;2378;-67
2023/03/03 19:25:09;;;;;;;;;;;;;;;2.85;100.00;95955.88;10391819;28;2591;-68
2023/03/03 19:30:22;;;;;;;;;;;;;;;2.84;100.00;95964.06;10392868;28;2410;-67
2023/03/03 19:35:24;;;;;;;;;;;;;;;2.83;100.00;95957.94;10389505;28;2301;-67
2023/03/03 19:40:27;;;;;;;;;;;;;;;2.70;100.00;95966.84;10394958;28;2287;-68
2023/03/03 19:45:30;;;;;;;;;;;;;;;2.61;100.00;95959.41;10396214;28;2439;-67
2023/03/03 19:50:34;;;;;;;;;;;;;;;2.47;100.00;95969.31;10391020;28;2679;-67
2023/03/03 19:55:37;;;;;;;;;;;;;;;2.40;100.00;95969.38;10389559;28;2722;-67
2023/03/03 20:00:40;;;;;;;;;;;;;;;2.30;100.00;95977.03;10409399;28;2575;-67
2023/03/03 20:05:45;;;;;;;;;;;;;;;2.29;100.00;95982.53;10404087;28;2630;-67
2023/03/03 20:10:48;;;;;;;;;;;;;;;2.24;100.00;95982.38;10404289;28;2263;-68
2023/03/03 20:15:50;;;;;;;;;;;;;;;2.25;100.00;95984.00;10407085;28;2583;-67
2023/03/03 20:20:53;;;;;;;;;;;;;;;2.19;100.00;95985.69;10399273;28;2620;-67
2023/03/03 20:25:55;;;;;;;;;;;;;;;2.17;100.00;95991.19;10399464;28;2596;-67
2023/03/03 20:30:58;;;;;;;;;;;;;;;2.19;100.00;95984.88;10394512;28;2738;-68
2023/03/03 20:36:00;;;;;;;;;;;;;;;2.22;100.00;95984.41;10401839;28;2568;-68
2023/03/03 20:41:04;;;;;;;;;;;;;;;2.13;100.00;95989.19;10399866;28;2331;-68
2023/03/03 20:46:07;;;;;;;;;;;;;;;2.09;100.00;95998.59;10399683;28;2538;-71
2023/03/03 20:51:09;;;;;;;;;;;;;;;2.08;100.00;96002.28;10399063;28;2613;-67
2023/03/03 20:56:13;;;;;;;;;;;;;;;2.01;100.00;96001.50;10415184;28;2407;-69
2023/03/03 21:01:16;;;;;;;;;;;;;;;2.02;100.00;95998.63;10404351;28;2562;-68
2023/03/03 21:06:19;;;;;;;;;;;;;;;1.93;100.00;95993.81;10394338;28;2644;-69
2023/03/03 21:11:22;;;;;;;;;;;;;;;1.86;100.00;96007.13;10395137;28;2567;-67
2023/03/03 21:16:25;;;;;;;;;;;;;;;1.81;100.00;96009.59;10408778;28;2610;-68
2023/03/03 21:21:28;;;;;;;;;;;;;;;1.77;100.00;96005.72;10391721;28;2567;-68
2023/03/03 21:26:31;;;;;;;;;;;;;;;1.79;100.00;96003.69;10402886;28;2631;-67
2023/03/03 21:31:35;;;;;;;;;;;;;;;1.71;100.00;96003.91;10400600;28;2692;-69
2023/03/03 21:36:38;;;;;;;;;;;;;;;1.73;100.00;96004.53;10399278;28;2330;-67
2023/03/03 21:41:50;;;;;;;;;;;;;;;1.72;100.00;96006.38;10396413;28;2680;-67
2023/03/03 21:46:53;;;;;;;;;;;;;;;1.69;100.00;96008.63;10401261;28;2587;-66
2023/03/03 21:52:00;;;;;;;;;;;;;;;1.65;100.00;96015.38;10411105;28;2629;-68
2023/03/03 21:57:03;;;;;;;;;;;;;;;1.65;100.00;96010.06;10404047;28;2566;-67
2023/03/03 22:02:06;;;;;;;;;;;;;;;1.63;100.00;96010.28;10402381;28;2593;-68
2023/03/03 22:07:09;;;;;;;;;;;;;;;1.58;100.00;96018.84;10392154;28;2558;-68
2023/03/03 22:12:12;;;;;;;;;;;;;;;1.57;100.00;96011.94;10396589;28;2635;-68
2023/03/03 22:17:16;;;;;;;;;;;;;;;1.49;100.00;96014.03;10394661;28;2326;-68
2023/03/03 22:22:18;;;;;;;;;;;;;;;1.53;100.00;96017.88;10396034;28;2318;-67
2023/03/03 22:27:20;;;;;;;;;;;;;;;1.42;100.00;96013.25;10397633;28;2647;-68
2023/03/03 22:32:23;;;;;;;;;;;;;;;1.39;100.00;96024.25;10400418;28;2626;-69
2023/03/03 22:37:26;;;;;;;;;;;;;;;1.37;100.00;96026.31;10401739;28;2662;-68
2023/03/03 22:42:28;;;;;;;;;;;;;;;1.33;100.00;96031.19;10394028;28;2283;-68
2023/03/03 22:47:32;;;;;;;;;;;;;;;1.27;100.00;96021.44;10393661;28;2667;-68
2023/03/03 22:52:34;;;;;;;;;;;;;;;1.23;100.00;96026.34;10390814;28;2571;-69
2023/03/03 22:57:37;;;;;;;;;;;;;;;1.24;100.00;96027.97;10390768;28;2619;-69
2023/03/03 23:02:50;;;;;;;;;;;;;;;1.20;100.00;96032.03;10388367;28;2637;-68
2023/03/03 23:07:52;;;;;;;;;;;;;;;1.16;100.00;96019.44;10398423;28;2260;-69
2023/03/03 23:12:55;;;;;;;;;;;;;;;1.11;100.00;96016.59;10392454;28;2310;-68
2023/03/03 23:17:58;;;;;;;;;;;;;;;1.07;100.00;96017.00;10396174;28;2638;-68
2023/03/03 23:23:00;;;;;;;;;;;;;;;1.05;100.00;96018.25;10395137;28;2581;-68
2023/03/03 23:28:04;;;;;;;;;;;;;;;1.06;100.00;96020.69;10388618;28;2557;-68
2023/03/03 23:33:06;;;;;;;;;;;;;;;1.03;100.00;96015.81;10401338;28;2607;-67
2023/03/03 23:38:14;;;;;;;;;;;;;;;0.94;100.00;96022.34;10401160;28;2623;-69
2023/03/03 23:43:16;;;;;;;;;;;;;;;0.94;100.00;96021.53;10403765;28;2700;-68
2023/03/03 23:48:20;;;;;;;;;;;;;;;0.85;100.00;96023.59;10405889;28;2744;-67
2023/03/03 23:53:22;;;;;;;;;;;;;;;0.83;100.00;96025.63;10399640;28;2287;-70
2023/03/03 23:58:25;;;;;;;;;;;;;;;0.81;100.00;96022.38;10401169;28;2583;-67
